Time;durP1;ratioP1;P1;durP2;ratioP2;P2;SDS_P1;SDS_P2;PMS_P1;PMS_P2;Temp;Humidity;BMP_temperature;BMP_pressure;BME280_temperature;BME280_humidity;BME280_pressure;Samples;Min_cycle;Max_cycle;Signal;HPM_P1;HPM_P2
2022/04/26 03:36:59;;;;;;;10.30;5.20;;;;;;;8.69;88.59;100163.11;709518;1182;115691;-78
2022/04/26 03:52:03;;;;;;;11.85;5.85;;;;;;;8.63;87.92;100171.45;709421;1184;115449;-80
2022/04/26 04:07:06;;;;;;;9.65;5.30;;;;;;;8.61;88.59;100179.42;709242;1183;115064;-80
2022/04/26 04:22:10;;;;;;;13.37;6.47;;;;;;;8.73;88.56;100192.46;709333;1182;115417;-80
2022/04/26 04:37:14;;;;;;;9.60;5.10;;;;;;;8.65;88.38;100206.16;708890;1184;115231;-80
2022/04/26 04:52:17;;;;;;;21.25;8.90;;;;;;;8.83;88.43;100225.58;709269;1184;115120;-80
2022/04/26 05:07:21;;;;;;;14.60;7.60;;;;;;;8.89;87.36;100232.09;709584;1181;114433;-79
2022/04/26 05:22:25;;;;;;;31.60;12.95;;;;;;;8.91;87.33;100247.69;708973;1182;114844;-80
2022/04/26 05:37:31;;;;;;;16.73;8.65;;;;;;;9.16;87.76;100251.73;709988;1184;115571;-81
2022/04/26 05:52:34;;;;;;;22.40;9.80;;;;;;;9.52;86.22;100267.13;711032;1183;114327;-76
2022/04/26 06:07:38;;;;;;;20.10;8.13;;;;;;;9.71;85.42;100269.83;710827;1181;115687;-80
2022/04/26 06:22:41;;;;;;;16.70;6.80;;;;;;;10.02;85.00;100267.22;710553;1184;114985;-77
2022/04/26 06:37:45;;;;;;;18.60;8.95;;;;;;;10.26;84.51;100276.55;712327;1183;115461;-80
2022/04/26 06:52:49;;;;;;;10.20;5.87;;;;;;;10.62;82.83;100297.91;712748;1182;114353;-79
2022/04/26 07:07:53;;;;;;;13.20;6.40;;;;;;;11.00;81.82;100293.68;710374;1184;115305;-78
2022/04/26 07:22:57;;;;;;;11.15;6.00;;;;;;;12.12;80.82;100300.14;710146;1182;115074;-78
2022/04/26 07:38:07;;;;;;;11.20;5.60;;;;;;;13.90;79.22;100322.39;710577;1181;114937;-79
2022/04/26 07:53:11;;;;;;;7.90;4.85;;;;;;;15.02;75.27;100330.22;709617;1182;115963;-79
2022/04/26 08:08:14;;;;;;;10.20;5.30;;;;;;;15.94;74.44;100330.04;709848;1184;114992;-79
2022/04/26 08:23:18;;;;;;;28.75;15.10;;;;;;;16.64;70.79;100344.33;709448;1184;115176;-79
2022/04/26 08:38:22;;;;;;;7.65;5.50;;;;;;;16.90;69.11;100356.48;708795;1182;115428;-80
2022/04/26 08:53:27;;;;;;;12.05;4.35;;;;;;;16.87;67.89;100362.11;710154;1184;115454;-80
2022/04/26 09:08:32;;;;;;;5.67;3.57;;;;;;;17.98;66.02;100373.20;709816;1182;114805;-76
2022/04/26 09:23:38;;;;;;;6.60;4.20;;;;;;;18.54;62.95;100375.41;711299;1183;114578;-77
2022/04/26 09:38:58;;;;;;;4.15;3.40;;;;;;;19.78;62.81;100378.88;710829;1183;114565;-75
2022/04/26 09:54:03;;;;;;;11.97;4.83;;;;;;;19.16;60.33;100378.55;709589;1182;114688;-75
2022/04/26 10:09:09;;;;;;;5.40;3.05;;;;;;;19.41;60.04;100384.33;709880;1184;116149;-78
2022/04/26 10:24:17;;;;;;;4.90;3.20;;;;;;;18.48;60.03;100392.06;712504;1183;114816;-83
2022/04/26 10:39:22;;;;;;;6.55;3.30;;;;;;;18.67;60.20;100395.16;710077;1181;115485;-78
2022/04/26 10:54:47;;;;;;;5.65;3.60;;;;;;;19.14;58.41;100398.38;713124;1184;114521;-74
2022/04/26 11:09:53;;;;;;;5.55;2.90;;;;;;;20.64;57.94;100396.42;709777;1183;115552;-85
2022/04/26 11:40:36;;;;;;;7.60;4.40;;;;;;;19.10;55.26;100403.25;709505;1184;115156;-75
2022/04/26 11:55:45;;;;;;;16.10;6.50;;;;;;;18.00;54.82;100397.75;709653;1183;114812;-74
2022/04/26 12:10:49;;;;;;;5.50;3.05;;;;;;;19.94;54.13;100396.42;709728;1181;115378;-74
2022/04/26 12:25:56;;;;;;;9.35;5.55;;;;;;;21.52;52.08;100389.44;709981;1183;114958;-75
2022/04/26 12:41:05;;;;;;;5.25;3.10;;;;;;;19.33;51.40;100384.44;715802;1182;114390;-75
2022/04/26 12:56:11;;;;;;;5.50;3.80;;;;;;;21.23;50.97;100381.61;709569;1184;115808;-76
2022/04/26 13:11:18;;;;;;;3.30;2.37;;;;;;;22.18;49.20;100369.06;710040;1184;115057;-75
2022/04/26 13:26:22;;;;;;;3.47;2.37;;;;;;;22.47;47.72;100364.27;709794;1184;115181;-74
2022/04/26 13:41:27;;;;;;;3.80;2.10;;;;;;;22.73;45.18;100355.30;709515;1181;115440;-74
2022/04/26 13:56:31;;;;;;;3.60;2.10;;;;;;;22.08;44.11;100372.18;709530;1182;114984;-76
2022/04/26 14:11:34;;;;;;;5.55;2.70;;;;;;;27.06;43.43;100364.78;709531;1183;115113;-76
2022/04/26 14:26:42;;;;;;;6.90;3.63;;;;;;;35.38;37.55;100366.55;710075;1182;115731;-77
2022/04/26 14:41:51;;;;;;;4.45;2.50;;;;;;;36.73;36.14;100366.25;710782;1183;114966;-76
2022/04/26 14:56:56;;;;;;;21.25;13.80;;;;;;;26.56;37.96;100355.52;709729;1184;115860;-76
2022/04/26 15:27:22;;;;;;;5.45;4.30;;;;;;;24.21;37.99;100368.35;709139;1181;115677;-77
2022/04/26 15:42:25;;;;;;;4.83;3.70;;;;;;;22.21;39.05;100366.80;709371;1182;115523;-76
2022/04/26 15:57:29;;;;;;;18.65;11.80;;;;;;;20.94;37.99;100369.45;709754;1183;115583;-77
2022/04/26 16:27:57;;;;;;;7.93;5.17;;;;;;;20.39;36.63;100383.59;709589;1182;115302;-75
2022/04/26 16:43:02;;;;;;;5.10;2.70;;;;;;;19.90;36.34;100393.34;708609;1184;115772;-77
2022/04/26 16:58:07;;;;;;;5.87;3.10;;;;;;;19.20;36.25;100413.56;709174;1181;115010;-82
2022/04/26 17:13:15;;;;;;;28.00;18.20;;;;;;;18.38;37.33;100426.04;709464;1183;115379;-76
2022/04/26 17:28:22;;;;;;;24.50;13.85;;;;;;;17.49;38.69;100437.28;709341;1184;115465;-77
2022/04/26 17:43:26;;;;;;;18.77;12.47;;;;;;;16.75;39.03;100449.09;709541;1182;115409;-78
2022/04/26 17:58:31;;;;;;;84.00;35.28;;;;;;;16.10;40.85;100478.19;709572;1182;115330;-78
2022/04/26 18:13:34;;;;;;;40.90;14.90;;;;;;;15.38;41.34;100499.91;709257;1182;115669;-77
2022/04/26 18:28:50;;;;;;;114.30;42.30;;;;;;;14.77;42.47;100529.06;709892;1182;115343;-77
2022/04/26 18:43:55;;;;;;;161.20;59.90;;;;;;;14.08;44.08;100551.79;709482;1184;114749;-75
2022/04/26 18:58:59;;;;;;;83.17;32.77;;;;;;;13.52;44.51;100577.45;709117;1182;115221;-75
2022/04/26 19:14:03;;;;;;;87.03;42.50;;;;;;;12.78;45.33;100587.82;709175;1182;115236;-75
2022/04/26 19:29:08;;;;;;;105.70;47.60;;;;;;;12.60;46.00;100611.39;709506;1181;115555;-74
2022/04/26 19:44:11;;;;;;;279.90;96.43;;;;;;;12.03;47.22;100630.48;709881;1184;116796;-76
2022/04/26 19:59:15;;;;;;;90.20;38.35;;;;;;;11.83;48.13;100634.86;709543;1183;115300;-76
2022/04/26 20:14:39;;;;;;;63.75;27.85;;;;;;;11.58;49.69;100636.99;710398;1184;114821;-76
2022/04/26 20:29:46;;;;;;;46.13;20.43;;;;;;;11.58;50.88;100649.31;711167;1183;114510;-78
2022/04/26 20:44:50;;;;;;;47.50;20.90;;;;;;;11.23;52.13;100663.66;711602;1182;114878;-78
2022/04/26 20:59:54;;;;;;;45.63;20.40;;;;;;;11.09;53.05;100670.91;711159;1182;114429;-76
2022/04/26 21:14:57;;;;;;;56.00;23.30;;;;;;;10.83;53.20;100686.21;710438;1184;115643;-79
2022/04/26 21:30:01;;;;;;;33.07;14.27;;;;;;;10.47;54.57;100699.59;711237;1182;114384;-79
2022/04/26 21:45:07;;;;;;;15.60;7.80;;;;;;;10.36;56.00;100707.52;710520;1183;115043;-78
2022/04/26 22:00:19;;;;;;;18.15;8.00;;;;;;;10.36;55.92;100725.88;712801;1182;115534;-77
2022/04/26 22:15:23;;;;;;;17.35;8.20;;;;;;;10.06;56.55;100736.98;710276;1184;114777;-76
2022/04/26 22:30:27;;;;;;;40.57;17.93;;;;;;;9.56;57.67;100750.43;710013;1183;114961;-76
2022/04/26 22:45:30;;;;;;;38.20;14.20;;;;;;;9.19;58.61;100753.22;709885;1181;115772;-75
2022/04/26 23:00:33;;;;;;;18.20;7.90;;;;;;;8.71;59.67;100775.86;709156;1182;115018;-75
2022/04/26 23:15:37;;;;;;;61.60;22.60;;;;;;;8.20;60.31;100784.66;709226;1183;115417;-76
2022/04/26 23:30:41;;;;;;;13.65;7.50;;;;;;;7.87;61.31;100788.67;709181;1183;115819;-76
2022/04/26 23:45:45;;;;;;;28.90;10.80;;;;;;;7.77;61.68;100783.25;709089;1182;115193;-76
